sensor_id;sensor_type;location;lat;lon;timestamp;P1;durP1;ratioP1;P2;durP2;ratioP2
3637;SDS011;1835;50.068;8.154;2022-12-07T00:01:34;12.90;;;6.97;;
3637;SDS011;1835;50.068;8.154;2022-12-07T00:04:06;16.50;;;8.60;;
3637;SDS011;1835;50.068;8.154;2022-12-07T00:06:37;21.73;;;9.60;;
3637;SDS011;1835;50.068;8.154;2022-12-07T00:09:09;19.30;;;7.63;;
3637;SDS011;1835;50.068;8.154;2022-12-07T00:11:41;14.70;;;6.97;;
3637;SDS011;1835;50.068;8.154;2022-12-07T00:14:11;15.37;;;6.90;;
3637;SDS011;1835;50.068;8.154;2022-12-07T00:16:42;19.30;;;8.00;;
3637;SDS011;1835;50.068;8.154;2022-12-07T00:19:12;15.50;;;7.77;;
3637;SDS011;1835;50.068;8.154;2022-12-07T00:21:41;16.07;;;7.53;;
3637;SDS011;1835;50.068;8.154;2022-12-07T00:24:11;16.83;;;8.10;;
3637;SDS011;1835;50.068;8.154;2022-12-07T00:26:40;18.80;;;7.60;;
3637;SDS011;1835;50.068;8.154;2022-12-07T00:29:12;21.30;;;8.83;;
3637;SDS011;1835;50.068;8.154;2022-12-07T00:31:43;26.03;;;7.27;;
3637;SDS011;1835;50.068;8.154;2022-12-07T00:34:16;14.17;;;7.90;;
3637;SDS011;1835;50.068;8.154;2022-12-07T00:36:46;14.37;;;6.47;;
3637;SDS011;1835;50.068;8.154;2022-12-07T00:39:19;16.10;;;7.43;;
3637;SDS011;1835;50.068;8.154;2022-12-07T00:41:47;10.53;;;6.13;;
3637;SDS011;1835;50.068;8.154;2022-12-07T00:44:15;16.10;;;7.20;;
3637;SDS011;1835;50.068;8.154;2022-12-07T00:46:43;20.20;;;7.83;;
3637;SDS011;1835;50.068;8.154;2022-12-07T00:49:12;14.70;;;8.20;;
3637;SDS011;1835;50.068;8.154;2022-12-07T00:51:40;23.20;;;7.50;;
3637;SDS011;1835;50.068;8.154;2022-12-07T00:54:08;18.17;;;8.17;;
3637;SDS011;1835;50.068;8.154;2022-12-07T00:56:37;15.00;;;6.80;;
3637;SDS011;1835;50.068;8.154;2022-12-07T00:59:10;12.70;;;6.40;;
3637;SDS011;1835;50.068;8.154;2022-12-07T01:01:41;16.60;;;7.03;;
3637;SDS011;1835;50.068;8.154;2022-12-07T01:04:10;11.30;;;6.40;;
3637;SDS011;1835;50.068;8.154;2022-12-07T01:06:38;14.67;;;6.17;;
3637;SDS011;1835;50.068;8.154;2022-12-07T01:09:06;11.43;;;5.37;;
3637;SDS011;1835;50.068;8.154;2022-12-07T01:11:35;19.90;;;6.10;;
3637;SDS011;1835;50.068;8.154;2022-12-07T01:14:04;13.00;;;6.50;;
3637;SDS011;1835;50.068;8.154;2022-12-07T01:16:32;13.73;;;5.60;;
3637;SDS011;1835;50.068;8.154;2022-12-07T01:19:00;13.50;;;6.03;;
3637;SDS011;1835;50.068;8.154;2022-12-07T01:21:32;13.07;;;5.80;;
3637;SDS011;1835;50.068;8.154;2022-12-07T01:24:04;11.10;;;5.90;;
3637;SDS011;1835;50.068;8.154;2022-12-07T01:26:34;16.10;;;7.20;;
3637;SDS011;1835;50.068;8.154;2022-12-07T01:29:03;13.27;;;6.00;;
3637;SDS011;1835;50.068;8.154;2022-12-07T01:31:32;8.80;;;5.33;;
3637;SDS011;1835;50.068;8.154;2022-12-07T01:34:00;15.20;;;6.60;;
3637;SDS011;1835;50.068;8.154;2022-12-07T01:36:30;14.73;;;6.33;;
3637;SDS011;1835;50.068;8.154;2022-12-07T01:39:00;12.83;;;6.10;;
3637;SDS011;1835;50.068;8.154;2022-12-07T01:41:32;12.00;;;5.90;;
3637;SDS011;1835;50.068;8.154;2022-12-07T01:44:14;12.53;;;5.57;;
3637;SDS011;1835;50.068;8.154;2022-12-07T01:46:49;14.53;;;5.40;;
3637;SDS011;1835;50.068;8.154;2022-12-07T01:49:20;12.30;;;6.10;;
3637;SDS011;1835;50.068;8.154;2022-12-07T01:51:58;11.73;;;5.30;;
3637;SDS011;1835;50.068;8.154;2022-12-07T01:54:36;6.90;;;4.63;;
3637;SDS011;1835;50.068;8.154;2022-12-07T01:57:04;14.80;;;6.60;;
3637;SDS011;1835;50.068;8.154;2022-12-07T01:59:38;8.90;;;5.00;;
3637;SDS011;1835;50.068;8.154;2022-12-07T02:02:07;15.53;;;5.83;;
3637;SDS011;1835;50.068;8.154;2022-12-07T02:04:44;15.13;;;6.03;;
3637;SDS011;1835;50.068;8.154;2022-12-07T02:07:13;15.70;;;6.50;;
3637;SDS011;1835;50.068;8.154;2022-12-07T02:09:41;12.10;;;5.40;;
3637;SDS011;1835;50.068;8.154;2022-12-07T02:12:10;9.20;;;4.70;;
3637;SDS011;1835;50.068;8.154;2022-12-07T02:14:39;9.40;;;4.33;;
3637;SDS011;1835;50.068;8.154;2022-12-07T02:17:09;9.47;;;5.90;;
3637;SDS011;1835;50.068;8.154;2022-12-07T02:19:50;7.70;;;4.00;;
3637;SDS011;1835;50.068;8.154;2022-12-07T02:26:19;13.37;;;5.37;;
3637;SDS011;1835;50.068;8.154;2022-12-07T02:29:22;10.17;;;4.43;;
3637;SDS011;1835;50.068;8.154;2022-12-07T02:31:56;13.17;;;4.97;;
3637;SDS011;1835;50.068;8.154;2022-12-07T02:34:35;9.90;;;4.47;;
3637;SDS011;1835;50.068;8.154;2022-12-07T02:37:17;7.60;;;4.40;;
3637;SDS011;1835;50.068;8.154;2022-12-07T02:39:57;9.73;;;4.00;;
3637;SDS011;1835;50.068;8.154;2022-12-07T02:42:31;6.70;;;3.63;;
3637;SDS011;1835;50.068;8.154;2022-12-07T02:45:06;5.63;;;3.90;;
3637;SDS011;1835;50.068;8.154;2022-12-07T02:47:37;8.93;;;4.53;;
3637;SDS011;1835;50.068;8.154;2022-12-07T02:50:07;13.57;;;6.43;;
3637;SDS011;1835;50.068;8.154;2022-12-07T02:52:36;8.83;;;4.20;;
3637;SDS011;1835;50.068;8.154;2022-12-07T02:55:04;7.50;;;3.60;;
3637;SDS011;1835;50.068;8.154;2022-12-07T02:57:39;9.97;;;5.40;;
3637;SDS011;1835;50.068;8.154;2022-12-07T03:00:21;8.50;;;4.40;;
3637;SDS011;1835;50.068;8.154;2022-12-07T03:02:51;7.67;;;4.40;;
3637;SDS011;1835;50.068;8.154;2022-12-07T03:08:30;7.43;;;4.40;;
3637;SDS011;1835;50.068;8.154;2022-12-07T03:11:06;6.37;;;4.37;;
3637;SDS011;1835;50.068;8.154;2022-12-07T03:13:38;8.97;;;5.20;;
3637;SDS011;1835;50.068;8.154;2022-12-07T03:16:14;12.53;;;4.53;;
3637;SDS011;1835;50.068;8.154;2022-12-07T03:18:45;9.57;;;4.03;;
3637;SDS011;1835;50.068;8.154;2022-12-07T03:21:17;11.03;;;5.30;;
3637;SDS011;1835;50.068;8.154;2022-12-07T03:23:50;8.20;;;4.90;;
3637;SDS011;1835;50.068;8.154;2022-12-07T03:26:23;9.03;;;5.13;;
3637;SDS011;1835;50.068;8.154;2022-12-07T03:28:59;9.60;;;4.90;;
3637;SDS011;1835;50.068;8.154;2022-12-07T03:31:40;15.83;;;5.20;;
3637;SDS011;1835;50.068;8.154;2022-12-07T03:34:14;6.47;;;4.60;;
3637;SDS011;1835;50.068;8.154;2022-12-07T03:36:47;10.77;;;4.60;;
3637;SDS011;1835;50.068;8.154;2022-12-07T03:39:22;9.70;;;5.77;;
3637;SDS011;1835;50.068;8.154;2022-12-07T03:41:57;14.53;;;6.07;;
3637;SDS011;1835;50.068;8.154;2022-12-07T03:44:28;9.90;;;5.67;;
3637;SDS011;1835;50.068;8.154;2022-12-07T03:46:59;10.33;;;5.20;;
3637;SDS011;1835;50.068;8.154;2022-12-07T03:49:32;7.43;;;4.77;;
3637;SDS011;1835;50.068;8.154;2022-12-07T03:52:11;5.47;;;3.60;;
3637;SDS011;1835;50.068;8.154;2022-12-07T03:54:47;7.53;;;5.20;;
3637;SDS011;1835;50.068;8.154;2022-12-07T03:57:24;9.00;;;5.33;;
3637;SDS011;1835;50.068;8.154;2022-12-07T03:59:55;10.90;;;5.70;;
3637;SDS011;1835;50.068;8.154;2022-12-07T04:02:26;12.13;;;6.30;;
3637;SDS011;1835;50.068;8.154;2022-12-07T04:04:56;8.60;;;5.43;;
3637;SDS011;1835;50.068;8.154;2022-12-07T04:07:24;9.37;;;5.33;;
3637;SDS011;1835;50.068;8.154;2022-12-07T04:09:52;13.20;;;6.20;;
3637;SDS011;1835;50.068;8.154;2022-12-07T04:12:21;10.83;;;5.83;;
3637;SDS011;1835;50.068;8.154;2022-12-07T04:14:49;7.70;;;4.90;;
3637;SDS011;1835;50.068;8.154;2022-12-07T04:17:17;15.03;;;6.40;;
3637;SDS011;1835;50.068;8.154;2022-12-07T04:19:46;8.57;;;4.30;;
3637;SDS011;1835;50.068;8.154;2022-12-07T04:22:14;13.30;;;6.57;;
3637;SDS011;1835;50.068;8.154;2022-12-07T04:24:42;9.37;;;5.53;;
3637;SDS011;1835;50.068;8.154;2022-12-07T04:27:10;11.50;;;6.27;;
3637;SDS011;1835;50.068;8.154;2022-12-07T04:29:38;12.87;;;5.83;;
3637;SDS011;1835;50.068;8.154;2022-12-07T04:32:06;16.80;;;6.20;;
3637;SDS011;1835;50.068;8.154;2022-12-07T04:34:35;19.83;;;7.20;;
3637;SDS011;1835;50.068;8.154;2022-12-07T04:37:05;10.50;;;6.20;;
3637;SDS011;1835;50.068;8.154;2022-12-07T04:39:33;13.17;;;6.60;;
3637;SDS011;1835;50.068;8.154;2022-12-07T04:42:01;9.50;;;6.47;;
3637;SDS011;1835;50.068;8.154;2022-12-07T04:44:29;12.60;;;7.10;;
3637;SDS011;1835;50.068;8.154;2022-12-07T04:46:58;12.13;;;6.70;;
3637;SDS011;1835;50.068;8.154;2022-12-07T04:49:26;11.23;;;6.30;;
3637;SDS011;1835;50.068;8.154;2022-12-07T04:51:54;13.33;;;6.70;;
3637;SDS011;1835;50.068;8.154;2022-12-07T04:54:23;10.53;;;5.87;;
3637;SDS011;1835;50.068;8.154;2022-12-07T04:56:51;8.93;;;6.23;;
3637;SDS011;1835;50.068;8.154;2022-12-07T04:59:19;11.20;;;5.80;;
3637;SDS011;1835;50.068;8.154;2022-12-07T05:01:47;13.77;;;6.97;;
3637;SDS011;1835;50.068;8.154;2022-12-07T05:04:16;10.50;;;5.77;;
3637;SDS011;1835;50.068;8.154;2022-12-07T05:06:44;12.13;;;6.30;;
3637;SDS011;1835;50.068;8.154;2022-12-07T05:09:12;12.50;;;5.63;;
3637;SDS011;1835;50.068;8.154;2022-12-07T05:11:42;11.10;;;5.00;;
3637;SDS011;1835;50.068;8.154;2022-12-07T05:14:11;11.90;;;6.13;;
3637;SDS011;1835;50.068;8.154;2022-12-07T05:16:43;9.73;;;5.60;;
3637;SDS011;1835;50.068;8.154;2022-12-07T05:19:13;13.00;;;6.33;;
3637;SDS011;1835;50.068;8.154;2022-12-07T05:21:44;11.37;;;5.83;;
3637;SDS011;1835;50.068;8.154;2022-12-07T05:24:13;10.57;;;5.63;;
3637;SDS011;1835;50.068;8.154;2022-12-07T05:26:44;9.00;;;6.07;;
3637;SDS011;1835;50.068;8.154;2022-12-07T05:29:13;13.43;;;6.13;;
3637;SDS011;1835;50.068;8.154;2022-12-07T05:31:43;15.87;;;6.33;;
3637;SDS011;1835;50.068;8.154;2022-12-07T05:34:11;16.60;;;6.70;;
3637;SDS011;1835;50.068;8.154;2022-12-07T05:36:39;13.93;;;5.80;;
3637;SDS011;1835;50.068;8.154;2022-12-07T05:39:07;15.60;;;6.43;;
3637;SDS011;1835;50.068;8.154;2022-12-07T05:41:35;12.93;;;6.37;;
3637;SDS011;1835;50.068;8.154;2022-12-07T05:44:22;10.03;;;5.20;;
3637;SDS011;1835;50.068;8.154;2022-12-07T05:46:50;12.20;;;6.60;;
3637;SDS011;1835;50.068;8.154;2022-12-07T05:49:18;10.70;;;6.00;;
3637;SDS011;1835;50.068;8.154;2022-12-07T05:51:47;11.07;;;5.47;;
3637;SDS011;1835;50.068;8.154;2022-12-07T05:54:15;16.80;;;5.77;;
3637;SDS011;1835;50.068;8.154;2022-12-07T05:56:43;10.80;;;5.77;;
3637;SDS011;1835;50.068;8.154;2022-12-07T05:59:11;10.43;;;6.00;;
3637;SDS011;1835;50.068;8.154;2022-12-07T06:01:54;16.43;;;5.97;;
3637;SDS011;1835;50.068;8.154;2022-12-07T06:04:24;17.57;;;5.77;;
3637;SDS011;1835;50.068;8.154;2022-12-07T06:06:54;10.13;;;5.93;;
3637;SDS011;1835;50.068;8.154;2022-12-07T06:09:24;11.30;;;6.47;;
3637;SDS011;1835;50.068;8.154;2022-12-07T06:11:54;11.97;;;5.80;;
3637;SDS011;1835;50.068;8.154;2022-12-07T06:14:40;11.93;;;6.07;;
3637;SDS011;1835;50.068;8.154;2022-12-07T06:17:12;12.93;;;6.23;;
3637;SDS011;1835;50.068;8.154;2022-12-07T06:19:41;10.57;;;6.30;;
3637;SDS011;1835;50.068;8.154;2022-12-07T06:22:09;10.63;;;5.00;;
3637;SDS011;1835;50.068;8.154;2022-12-07T06:24:38;9.83;;;5.53;;
3637;SDS011;1835;50.068;8.154;2022-12-07T06:27:06;11.43;;;5.73;;
3637;SDS011;1835;50.068;8.154;2022-12-07T06:29:35;9.47;;;4.57;;
3637;SDS011;1835;50.068;8.154;2022-12-07T06:32:03;7.80;;;4.33;;
3637;SDS011;1835;50.068;8.154;2022-12-07T06:34:33;13.10;;;5.20;;
3637;SDS011;1835;50.068;8.154;2022-12-07T06:37:02;6.77;;;4.57;;
3637;SDS011;1835;50.068;8.154;2022-12-07T06:39:30;8.60;;;4.43;;
3637;SDS011;1835;50.068;8.154;2022-12-07T06:41:58;15.27;;;5.53;;
3637;SDS011;1835;50.068;8.154;2022-12-07T06:44:26;7.53;;;5.47;;
3637;SDS011;1835;50.068;8.154;2022-12-07T06:46:54;11.07;;;6.17;;
3637;SDS011;1835;50.068;8.154;2022-12-07T06:49:46;11.50;;;5.50;;
3637;SDS011;1835;50.068;8.154;2022-12-07T06:52:14;8.10;;;4.63;;
3637;SDS011;1835;50.068;8.154;2022-12-07T06:54:42;10.00;;;4.60;;
3637;SDS011;1835;50.068;8.154;2022-12-07T06:57:11;13.20;;;5.20;;
3637;SDS011;1835;50.068;8.154;2022-12-07T06:59:39;10.40;;;6.20;;
3637;SDS011;1835;50.068;8.154;2022-12-07T07:02:07;10.40;;;5.30;;
3637;SDS011;1835;50.068;8.154;2022-12-07T07:04:36;6.47;;;4.47;;
3637;SDS011;1835;50.068;8.154;2022-12-07T07:07:05;8.90;;;5.10;;
3637;SDS011;1835;50.068;8.154;2022-12-07T07:09:33;10.30;;;5.20;;
3637;SDS011;1835;50.068;8.154;2022-12-07T07:12:01;9.77;;;5.13;;
3637;SDS011;1835;50.068;8.154;2022-12-07T07:14:30;11.13;;;5.50;;
3637;SDS011;1835;50.068;8.154;2022-12-07T07:16:58;7.67;;;5.27;;
3637;SDS011;1835;50.068;8.154;2022-12-07T07:19:27;11.93;;;6.03;;
3637;SDS011;1835;50.068;8.154;2022-12-07T07:21:55;7.70;;;4.30;;
3637;SDS011;1835;50.068;8.154;2022-12-07T07:24:24;9.00;;;5.40;;
3637;SDS011;1835;50.068;8.154;2022-12-07T07:26:52;11.23;;;5.83;;
3637;SDS011;1835;50.068;8.154;2022-12-07T07:29:20;6.30;;;4.10;;
3637;SDS011;1835;50.068;8.154;2022-12-07T07:31:48;7.97;;;4.27;;
3637;SDS011;1835;50.068;8.154;2022-12-07T07:34:16;7.83;;;4.50;;
3637;SDS011;1835;50.068;8.154;2022-12-07T07:36:44;9.37;;;4.40;;
3637;SDS011;1835;50.068;8.154;2022-12-07T07:39:12;9.00;;;4.80;;
3637;SDS011;1835;50.068;8.154;2022-12-07T07:41:42;5.50;;;3.93;;
3637;SDS011;1835;50.068;8.154;2022-12-07T07:44:10;10.00;;;5.63;;
3637;SDS011;1835;50.068;8.154;2022-12-07T07:46:39;11.63;;;4.40;;
3637;SDS011;1835;50.068;8.154;2022-12-07T07:49:08;9.00;;;4.80;;
3637;SDS011;1835;50.068;8.154;2022-12-07T07:51:37;8.23;;;4.33;;
3637;SDS011;1835;50.068;8.154;2022-12-07T07:54:05;10.33;;;5.53;;
3637;SDS011;1835;50.068;8.154;2022-12-07T07:56:33;8.53;;;4.90;;
3637;SDS011;1835;50.068;8.154;2022-12-07T07:59:02;8.83;;;4.53;;
3637;SDS011;1835;50.068;8.154;2022-12-07T08:01:30;6.80;;;3.93;;
3637;SDS011;1835;50.068;8.154;2022-12-07T08:03:58;8.40;;;4.03;;
3637;SDS011;1835;50.068;8.154;2022-12-07T08:06:27;6.80;;;4.00;;
3637;SDS011;1835;50.068;8.154;2022-12-07T08:08:57;8.03;;;4.70;;
3637;SDS011;1835;50.068;8.154;2022-12-07T08:11:26;7.23;;;4.57;;
3637;SDS011;1835;50.068;8.154;2022-12-07T08:13:54;5.63;;;3.90;;
3637;SDS011;1835;50.068;8.154;2022-12-07T08:16:23;6.97;;;4.20;;
3637;SDS011;1835;50.068;8.154;2022-12-07T08:18:51;7.57;;;4.57;;
3637;SDS011;1835;50.068;8.154;2022-12-07T08:21:19;6.33;;;3.60;;
3637;SDS011;1835;50.068;8.154;2022-12-07T08:23:47;8.80;;;4.30;;
3637;SDS011;1835;50.068;8.154;2022-12-07T08:26:16;4.43;;;3.67;;
3637;SDS011;1835;50.068;8.154;2022-12-07T08:28:44;11.00;;;4.97;;
3637;SDS011;1835;50.068;8.154;2022-12-07T08:31:13;13.73;;;4.53;;
3637;SDS011;1835;50.068;8.154;2022-12-07T08:33:46;11.80;;;4.93;;
3637;SDS011;1835;50.068;8.154;2022-12-07T08:36:15;7.27;;;4.30;;
3637;SDS011;1835;50.068;8.154;2022-12-07T08:38:45;12.03;;;4.87;;
3637;SDS011;1835;50.068;8.154;2022-12-07T08:41:33;7.03;;;4.53;;
3637;SDS011;1835;50.068;8.154;2022-12-07T08:44:02;6.40;;;4.20;;
3637;SDS011;1835;50.068;8.154;2022-12-07T08:46:31;6.47;;;3.90;;
3637;SDS011;1835;50.068;8.154;2022-12-07T08:49:06;9.33;;;4.57;;
3637;SDS011;1835;50.068;8.154;2022-12-07T08:51:39;17.90;;;4.70;;
3637;SDS011;1835;50.068;8.154;2022-12-07T08:54:09;7.23;;;4.73;;
3637;SDS011;1835;50.068;8.154;2022-12-07T08:56:43;6.80;;;4.27;;
3637;SDS011;1835;50.068;8.154;2022-12-07T08:59:12;8.33;;;3.73;;
3637;SDS011;1835;50.068;8.154;2022-12-07T09:01:43;6.90;;;3.87;;
3637;SDS011;1835;50.068;8.154;2022-12-07T09:04:12;10.97;;;5.57;;
3637;SDS011;1835;50.068;8.154;2022-12-07T09:06:41;12.77;;;5.07;;
3637;SDS011;1835;50.068;8.154;2022-12-07T09:09:10;6.20;;;4.40;;
3637;SDS011;1835;50.068;8.154;2022-12-07T09:11:39;7.23;;;4.93;;
3637;SDS011;1835;50.068;8.154;2022-12-07T09:14:07;13.40;;;5.23;;
3637;SDS011;1835;50.068;8.154;2022-12-07T09:16:37;9.00;;;4.90;;
3637;SDS011;1835;50.068;8.154;2022-12-07T09:19:05;8.63;;;3.70;;
3637;SDS011;1835;50.068;8.154;2022-12-07T09:21:36;6.10;;;3.90;;
3637;SDS011;1835;50.068;8.154;2022-12-07T09:24:04;10.50;;;4.83;;
3637;SDS011;1835;50.068;8.154;2022-12-07T09:26:33;9.83;;;5.00;;
3637;SDS011;1835;50.068;8.154;2022-12-07T09:29:02;10.13;;;5.30;;
3637;SDS011;1835;50.068;8.154;2022-12-07T09:31:30;6.50;;;4.50;;
3637;SDS011;1835;50.068;8.154;2022-12-07T09:33:59;6.30;;;4.07;;
3637;SDS011;1835;50.068;8.154;2022-12-07T09:40:29;7.40;;;4.00;;
3637;SDS011;1835;50.068;8.154;2022-12-07T09:42:57;8.33;;;4.13;;
3637;SDS011;1835;50.068;8.154;2022-12-07T09:45:26;10.90;;;4.97;;
3637;SDS011;1835;50.068;8.154;2022-12-07T09:48:00;11.20;;;3.90;;
3637;SDS011;1835;50.068;8.154;2022-12-07T09:50:30;11.57;;;3.97;;
3637;SDS011;1835;50.068;8.154;2022-12-07T09:53:03;4.37;;;3.10;;
3637;SDS011;1835;50.068;8.154;2022-12-07T09:55:36;5.43;;;2.93;;
3637;SDS011;1835;50.068;8.154;2022-12-07T09:58:08;4.83;;;3.20;;
3637;SDS011;1835;50.068;8.154;2022-12-07T10:00:46;7.47;;;3.07;;
3637;SDS011;1835;50.068;8.154;2022-12-07T10:03:15;7.03;;;4.60;;
3637;SDS011;1835;50.068;8.154;2022-12-07T10:05:44;6.17;;;3.87;;
3637;SDS011;1835;50.068;8.154;2022-12-07T10:08:15;7.57;;;3.67;;
3637;SDS011;1835;50.068;8.154;2022-12-07T10:10:46;7.20;;;3.17;;
3637;SDS011;1835;50.068;8.154;2022-12-07T10:13:19;4.47;;;2.47;;
3637;SDS011;1835;50.068;8.154;2022-12-07T10:15:50;2.50;;;2.30;;
3637;SDS011;1835;50.068;8.154;2022-12-07T10:18:25;3.50;;;3.20;;
3637;SDS011;1835;50.068;8.154;2022-12-07T10:21:00;5.43;;;2.43;;
3637;SDS011;1835;50.068;8.154;2022-12-07T10:23:39;7.33;;;2.53;;
3637;SDS011;1835;50.068;8.154;2022-12-07T10:26:21;2.07;;;1.87;;
3637;SDS011;1835;50.068;8.154;2022-12-07T10:29:02;6.40;;;2.13;;
3637;SDS011;1835;50.068;8.154;2022-12-07T10:31:44;2.30;;;2.07;;
3637;SDS011;1835;50.068;8.154;2022-12-07T10:34:20;3.37;;;2.43;;
3637;SDS011;1835;50.068;8.154;2022-12-07T10:36:51;6.60;;;5.60;;
3637;SDS011;1835;50.068;8.154;2022-12-07T10:39:21;2.80;;;2.10;;
3637;SDS011;1835;50.068;8.154;2022-12-07T10:41:55;2.57;;;1.87;;
3637;SDS011;1835;50.068;8.154;2022-12-07T10:44:26;3.00;;;2.13;;
3637;SDS011;1835;50.068;8.154;2022-12-07T10:47:12;2.00;;;1.60;;
3637;SDS011;1835;50.068;8.154;2022-12-07T10:50:01;2.00;;;1.70;;
3637;SDS011;1835;50.068;8.154;2022-12-07T10:53:15;2.60;;;1.63;;
3637;SDS011;1835;50.068;8.154;2022-12-07T10:56:18;3.07;;;1.40;;
3637;SDS011;1835;50.068;8.154;2022-12-07T10:59:17;14.73;;;2.00;;
3637;SDS011;1835;50.068;8.154;2022-12-07T11:02:15;2.17;;;2.07;;
3637;SDS011;1835;50.068;8.154;2022-12-07T11:04:55;2.10;;;1.50;;
3637;SDS011;1835;50.068;8.154;2022-12-07T11:07:37;1.40;;;1.30;;
3637;SDS011;1835;50.068;8.154;2022-12-07T11:10:22;1.90;;;1.80;;
3637;SDS011;1835;50.068;8.154;2022-12-07T11:13:02;5.23;;;1.90;;
3637;SDS011;1835;50.068;8.154;2022-12-07T11:15:50;5.40;;;2.20;;
3637;SDS011;1835;50.068;8.154;2022-12-07T11:18:46;2.53;;;1.57;;
3637;SDS011;1835;50.068;8.154;2022-12-07T11:21:42;3.43;;;1.87;;
3637;SDS011;1835;50.068;8.154;2022-12-07T11:24:18;10.03;;;1.93;;
3637;SDS011;1835;50.068;8.154;2022-12-07T11:26:57;2.87;;;2.00;;
3637;SDS011;1835;50.068;8.154;2022-12-07T11:29:55;4.70;;;1.40;;
3637;SDS011;1835;50.068;8.154;2022-12-07T11:32:46;1.20;;;1.20;;
3637;SDS011;1835;50.068;8.154;2022-12-07T11:35:26;2.90;;;1.60;;
3637;SDS011;1835;50.068;8.154;2022-12-07T11:38:08;2.93;;;1.83;;
3637;SDS011;1835;50.068;8.154;2022-12-07T11:40:46;5.90;;;1.90;;
3637;SDS011;1835;50.068;8.154;2022-12-07T11:43:19;1.40;;;1.30;;
3637;SDS011;1835;50.068;8.154;2022-12-07T11:45:52;1.73;;;1.63;;
3637;SDS011;1835;50.068;8.154;2022-12-07T11:48:30;1.63;;;1.53;;
3637;SDS011;1835;50.068;8.154;2022-12-07T11:51:01;2.03;;;1.73;;
3637;SDS011;1835;50.068;8.154;2022-12-07T11:53:32;2.50;;;2.30;;
3637;SDS011;1835;50.068;8.154;2022-12-07T11:56:08;5.53;;;1.73;;
3637;SDS011;1835;50.068;8.154;2022-12-07T11:58:42;5.03;;;2.93;;
3637;SDS011;1835;50.068;8.154;2022-12-07T12:01:24;3.80;;;1.87;;
3637;SDS011;1835;50.068;8.154;2022-12-07T12:04:05;1.43;;;1.20;;
3637;SDS011;1835;50.068;8.154;2022-12-07T12:06:44;2.70;;;1.30;;
3637;SDS011;1835;50.068;8.154;2022-12-07T12:09:14;5.23;;;1.63;;
3637;SDS011;1835;50.068;8.154;2022-12-07T12:12:08;6.07;;;1.63;;
3637;SDS011;1835;50.068;8.154;2022-12-07T12:15:19;4.03;;;1.70;;
3637;SDS011;1835;50.068;8.154;2022-12-07T12:18:05;2.37;;;1.27;;
3637;SDS011;1835;50.068;8.154;2022-12-07T12:20:48;4.70;;;2.03;;
3637;SDS011;1835;50.068;8.154;2022-12-07T12:23:22;2.53;;;1.20;;
3637;SDS011;1835;50.068;8.154;2022-12-07T12:25:55;1.67;;;1.57;;
3637;SDS011;1835;50.068;8.154;2022-12-07T12:28:27;7.20;;;2.03;;
3637;SDS011;1835;50.068;8.154;2022-12-07T12:31:05;3.20;;;1.60;;
3637;SDS011;1835;50.068;8.154;2022-12-07T12:33:37;1.20;;;0.90;;
3637;SDS011;1835;50.068;8.154;2022-12-07T12:36:19;2.27;;;1.77;;
3637;SDS011;1835;50.068;8.154;2022-12-07T12:39:07;4.53;;;1.50;;
3637;SDS011;1835;50.068;8.154;2022-12-07T12:41:53;4.20;;;1.50;;
3637;SDS011;1835;50.068;8.154;2022-12-07T12:44:39;4.10;;;1.47;;
3637;SDS011;1835;50.068;8.154;2022-12-07T12:47:53;5.70;;;1.17;;
3637;SDS011;1835;50.068;8.154;2022-12-07T12:50:27;5.07;;;1.47;;
3637;SDS011;1835;50.068;8.154;2022-12-07T12:53:00;6.47;;;1.40;;
3637;SDS011;1835;50.068;8.154;2022-12-07T12:58:42;9.20;;;1.77;;
3637;SDS011;1835;50.068;8.154;2022-12-07T13:10:35;5.13;;;1.73;;
3637;SDS011;1835;50.068;8.154;2022-12-07T13:13:28;4.93;;;1.20;;
3637;SDS011;1835;50.068;8.154;2022-12-07T13:22:33;2.97;;;1.83;;
3637;SDS011;1835;50.068;8.154;2022-12-07T13:25:11;9.50;;;2.00;;
3637;SDS011;1835;50.068;8.154;2022-12-07T13:27:48;0.97;;;0.97;;
3637;SDS011;1835;50.068;8.154;2022-12-07T13:30:27;3.83;;;1.50;;
3637;SDS011;1835;50.068;8.154;2022-12-07T13:32:58;4.90;;;1.70;;
3637;SDS011;1835;50.068;8.154;2022-12-07T13:35:27;3.00;;;1.60;;
3637;SDS011;1835;50.068;8.154;2022-12-07T13:37:57;1.13;;;1.10;;
3637;SDS011;1835;50.068;8.154;2022-12-07T13:40:26;4.43;;;1.33;;
3637;SDS011;1835;50.068;8.154;2022-12-07T13:42:59;6.53;;;1.73;;
3637;SDS011;1835;50.068;8.154;2022-12-07T13:45:29;2.30;;;1.30;;
3637;SDS011;1835;50.068;8.154;2022-12-07T13:48:20;4.93;;;1.40;;
3637;SDS011;1835;50.068;8.154;2022-12-07T13:50:52;1.90;;;1.13;;
3637;SDS011;1835;50.068;8.154;2022-12-07T13:53:22;1.53;;;1.00;;
3637;SDS011;1835;50.068;8.154;2022-12-07T13:55:50;1.80;;;1.03;;
3637;SDS011;1835;50.068;8.154;2022-12-07T13:58:21;4.40;;;1.10;;
3637;SDS011;1835;50.068;8.154;2022-12-07T14:00:50;12.63;;;1.40;;
3637;SDS011;1835;50.068;8.154;2022-12-07T14:06:13;2.40;;;1.07;;
3637;SDS011;1835;50.068;8.154;2022-12-07T14:09:08;13.53;;;2.00;;
3637;SDS011;1835;50.068;8.154;2022-12-07T14:11:45;4.50;;;1.60;;
3637;SDS011;1835;50.068;8.154;2022-12-07T14:14:17;4.20;;;1.40;;
3637;SDS011;1835;50.068;8.154;2022-12-07T14:16:58;2.43;;;1.10;;
3637;SDS011;1835;50.068;8.154;2022-12-07T14:19:46;1.20;;;0.90;;
3637;SDS011;1835;50.068;8.154;2022-12-07T14:22:27;2.60;;;0.90;;
3637;SDS011;1835;50.068;8.154;2022-12-07T14:25:11;3.87;;;0.90;;
3637;SDS011;1835;50.068;8.154;2022-12-07T14:27:48;0.73;;;0.73;;
3637;SDS011;1835;50.068;8.154;2022-12-07T14:30:23;8.03;;;1.27;;
3637;SDS011;1835;50.068;8.154;2022-12-07T14:32:55;3.47;;;1.53;;
3637;SDS011;1835;50.068;8.154;2022-12-07T14:35:27;11.63;;;1.20;;
3637;SDS011;1835;50.068;8.154;2022-12-07T14:37:56;1.43;;;1.00;;
3637;SDS011;1835;50.068;8.154;2022-12-07T14:40:25;6.00;;;1.27;;
3637;SDS011;1835;50.068;8.154;2022-12-07T14:42:56;1.97;;;1.00;;
3637;SDS011;1835;50.068;8.154;2022-12-07T14:45:30;2.33;;;1.13;;
3637;SDS011;1835;50.068;8.154;2022-12-07T14:47:58;1.07;;;1.03;;
3637;SDS011;1835;50.068;8.154;2022-12-07T14:50:48;4.73;;;1.00;;
3637;SDS011;1835;50.068;8.154;2022-12-07T14:53:39;1.40;;;1.30;;
3637;SDS011;1835;50.068;8.154;2022-12-07T14:56:15;1.03;;;1.03;;
3637;SDS011;1835;50.068;8.154;2022-12-07T14:58:43;0.97;;;0.80;;
3637;SDS011;1835;50.068;8.154;2022-12-07T15:01:15;2.20;;;1.00;;
3637;SDS011;1835;50.068;8.154;2022-12-07T15:03:43;0.80;;;0.80;;
3637;SDS011;1835;50.068;8.154;2022-12-07T15:06:13;5.33;;;1.07;;
3637;SDS011;1835;50.068;8.154;2022-12-07T15:08:43;1.53;;;0.80;;
3637;SDS011;1835;50.068;8.154;2022-12-07T15:11:12;0.80;;;0.80;;
3637;SDS011;1835;50.068;8.154;2022-12-07T15:13:41;1.30;;;1.13;;
3637;SDS011;1835;50.068;8.154;2022-12-07T15:16:28;1.47;;;1.20;;
3637;SDS011;1835;50.068;8.154;2022-12-07T15:19:17;0.80;;;0.80;;
3637;SDS011;1835;50.068;8.154;2022-12-07T15:21:54;1.47;;;1.07;;
3637;SDS011;1835;50.068;8.154;2022-12-07T15:24:22;3.83;;;2.00;;
3637;SDS011;1835;50.068;8.154;2022-12-07T15:26:51;1.10;;;1.00;;
3637;SDS011;1835;50.068;8.154;2022-12-07T15:29:19;1.57;;;1.00;;
3637;SDS011;1835;50.068;8.154;2022-12-07T15:31:51;1.53;;;1.13;;
3637;SDS011;1835;50.068;8.154;2022-12-07T15:34:23;2.50;;;0.97;;
3637;SDS011;1835;50.068;8.154;2022-12-07T15:37:01;4.43;;;1.23;;
3637;SDS011;1835;50.068;8.154;2022-12-07T15:39:29;1.00;;;1.00;;
3637;SDS011;1835;50.068;8.154;2022-12-07T15:41:57;2.10;;;1.03;;
3637;SDS011;1835;50.068;8.154;2022-12-07T15:44:25;6.50;;;1.00;;
3637;SDS011;1835;50.068;8.154;2022-12-07T15:47:12;1.20;;;1.13;;
3637;SDS011;1835;50.068;8.154;2022-12-07T15:49:40;2.07;;;1.87;;
3637;SDS011;1835;50.068;8.154;2022-12-07T15:52:10;6.50;;;1.27;;
3637;SDS011;1835;50.068;8.154;2022-12-07T15:54:39;0.70;;;0.70;;
3637;SDS011;1835;50.068;8.154;2022-12-07T15:57:07;4.80;;;1.10;;
3637;SDS011;1835;50.068;8.154;2022-12-07T15:59:53;3.23;;;1.30;;
3637;SDS011;1835;50.068;8.154;2022-12-07T16:02:22;5.03;;;1.13;;
3637;SDS011;1835;50.068;8.154;2022-12-07T16:04:50;1.47;;;0.93;;
3637;SDS011;1835;50.068;8.154;2022-12-07T16:07:19;1.00;;;0.90;;
3637;SDS011;1835;50.068;8.154;2022-12-07T16:09:47;0.73;;;0.73;;
3637;SDS011;1835;50.068;8.154;2022-12-07T16:12:16;1.00;;;1.00;;
3637;SDS011;1835;50.068;8.154;2022-12-07T16:14:44;1.00;;;1.00;;
3637;SDS011;1835;50.068;8.154;2022-12-07T16:17:12;1.00;;;1.00;;
3637;SDS011;1835;50.068;8.154;2022-12-07T16:19:42;7.23;;;1.33;;